Time;durP1;ratioP1;P1;durP2;ratioP2;P2;SDS_P1;SDS_P2;PMS_P1;PMS_P2;Temp;Humidity;BMP_temperature;BMP_pressure;BME280_temperature;BME280_humidity;BME280_pressure;Samples;Min_cycle;Max_cycle;Signal;HPM_P1;HPM_P2
2021/09/25 00:00:12;;;;;;;10.30;6.80;;;;;;;16.65;88.91;99215.22;5080931;28;20119;-94
2021/09/25 00:02:38;;;;;;;10.30;7.32;;;;;;;16.67;88.73;99232.16;5084626;28;20115;-95
2021/09/25 00:05:06;;;;;;;10.68;6.65;;;;;;;16.77;88.80;99243.38;5081361;28;20123;-95
2021/09/25 00:07:33;;;;;;;10.77;6.13;;;;;;;16.69;89.10;99241.00;5085645;28;20049;-95
2021/09/25 00:10:00;;;;;;;11.75;6.70;;;;;;;16.48;89.08;99205.25;5087323;28;20052;-95
2021/09/25 00:12:26;;;;;;;11.35;6.82;;;;;;;16.39;89.70;99200.28;5087387;28;20520;-95
2021/09/25 00:14:52;;;;;;;11.38;6.78;;;;;;;16.32;90.09;99205.03;5087173;28;20116;-94
2021/09/25 00:17:17;;;;;;;11.27;6.63;;;;;;;16.32;90.10;99214.91;5087110;28;20071;-94
2021/09/25 00:19:43;;;;;;;10.73;6.93;;;;;;;16.21;90.44;99208.19;5087682;28;20052;-96
2021/09/25 00:22:10;;;;;;;11.07;6.75;;;;;;;16.18;90.76;99202.97;5088127;28;20524;-95
2021/09/25 00:24:37;;;;;;;10.57;6.85;;;;;;;16.38;91.03;99242.34;5087077;28;20045;-94
2021/09/25 00:27:04;;;;;;;13.55;6.93;;;;;;;16.32;91.02;99237.25;5087568;28;20047;-95
2021/09/25 00:29:30;;;;;;;11.65;6.78;;;;;;;16.09;90.92;99207.84;5087885;28;20049;-94
2021/09/25 00:31:56;;;;;;;12.00;7.00;;;;;;;16.17;91.31;99233.41;5087022;28;20048;-95
2021/09/25 00:34:22;;;;;;;14.30;7.28;;;;;;;16.01;91.19;99206.38;5087745;28;20052;-94
2021/09/25 00:36:49;;;;;;;13.60;7.22;;;;;;;16.06;91.21;99227.63;5085583;28;20044;-95
2021/09/25 00:39:15;;;;;;;14.25;7.53;;;;;;;15.96;91.82;99216.44;5085217;28;20045;-95
2021/09/25 00:41:43;;;;;;;12.20;6.90;;;;;;;15.91;91.37;99210.38;5084782;28;20044;-94
2021/09/25 00:44:09;;;;;;;13.50;7.00;;;;;;;15.92;92.01;99219.31;5085712;28;20109;-94
2021/09/25 00:46:35;;;;;;;13.23;7.50;;;;;;;16.04;92.01;99231.31;5085168;28;20505;-95
2021/09/25 00:49:01;;;;;;;9.98;7.32;;;;;;;15.94;92.26;99223.66;5085897;28;20036;-95
2021/09/25 00:51:27;;;;;;;12.52;6.82;;;;;;;15.85;91.86;99210.63;5084692;28;20040;-94
2021/09/25 00:53:53;;;;;;;11.63;7.38;;;;;;;15.87;92.24;99210.56;5084435;28;20041;-95
2021/09/25 00:56:19;;;;;;;13.35;6.78;;;;;;;15.85;92.63;99207.94;5085210;28;20045;-95
2021/09/25 00:58:47;;;;;;;14.05;7.03;;;;;;;15.88;92.66;99209.66;5085422;28;20048;-95
2021/09/25 01:01:13;;;;;;;11.63;7.82;;;;;;;16.00;93.07;99242.19;5079944;28;20100;-94
2021/09/25 01:03:38;;;;;;;9.95;7.00;;;;;;;15.77;92.66;99212.78;5084917;28;20071;-93
2021/09/25 01:06:04;;;;;;;11.23;7.03;;;;;;;15.87;93.13;99234.69;5084804;28;20086;-94
2021/09/25 01:08:30;;;;;;;13.65;7.00;;;;;;;15.82;92.87;99224.16;5083592;28;20631;-95
2021/09/25 01:10:56;;;;;;;9.40;6.90;;;;;;;15.71;93.22;99204.94;5085000;28;20060;-95
2021/09/25 01:13:23;;;;;;;10.27;7.00;;;;;;;15.66;92.95;99209.59;5084237;28;20037;-94
2021/09/25 01:15:51;;;;;;;10.23;7.20;;;;;;;15.68;93.55;99222.03;5083561;28;20044;-95
2021/09/25 01:18:17;;;;;;;11.95;7.53;;;;;;;15.63;93.84;99212.41;5085133;28;20071;-94
2021/09/25 01:20:43;;;;;;;13.63;7.50;;;;;;;15.74;93.94;99232.53;5083973;28;20032;-95
2021/09/25 01:23:11;;;;;;;11.45;7.07;;;;;;;15.63;94.36;99226.69;5084702;28;20036;-95
2021/09/25 01:25:37;;;;;;;14.05;7.32;;;;;;;15.72;94.62;99238.88;5085019;28;20040;-95
2021/09/25 01:28:04;;;;;;;11.93;8.05;;;;;;;15.77;94.58;99248.50;5085529;28;20040;-95
2021/09/25 01:30:30;;;;;;;13.45;7.47;;;;;;;15.62;94.70;99203.50;5086056;28;20048;-96
2021/09/25 01:32:58;;;;;;;13.65;7.65;;;;;;;15.65;94.75;99213.22;5084497;28;20044;-94
2021/09/25 01:35:24;;;;;;;10.23;7.35;;;;;;;15.65;94.69;99216.78;5084725;28;20051;-94
2021/09/25 01:37:52;;;;;;;12.68;7.72;;;;;;;15.71;95.06;99227.28;5085750;28;20043;-95
2021/09/25 01:40:20;;;;;;;12.25;7.90;;;;;;;15.64;95.43;99206.13;5085295;28;20048;-94
2021/09/25 01:42:47;;;;;;;10.77;7.00;;;;;;;15.57;95.19;99202.78;5085263;28;20036;-95
2021/09/25 01:45:14;;;;;;;15.07;7.53;;;;;;;15.58;95.42;99210.78;5083440;28;20037;-95
2021/09/25 01:47:40;;;;;;;9.50;7.18;;;;;;;15.72;95.36;99233.50;5084320;28;20049;-96
2021/09/25 01:50:09;;;;;;;11.35;7.53;;;;;;;15.52;94.63;99212.84;5083597;28;20064;-95
2021/09/25 01:52:36;;;;;;;12.15;7.75;;;;;;;15.51;94.65;99221.84;5082531;28;20060;-93
2021/09/25 01:55:02;;;;;;;11.98;8.10;;;;;;;15.48;94.66;99212.09;5085392;28;20167;-94
2021/09/25 01:57:30;;;;;;;13.07;7.70;;;;;;;15.49;93.92;99212.97;5084521;28;20103;-94
2021/09/25 01:59:56;;;;;;;11.90;7.20;;;;;;;15.47;94.66;99204.13;5085403;28;20071;-94
2021/09/25 02:02:22;;;;;;;11.73;7.35;;;;;;;15.37;95.65;99212.50;5084404;28;20044;-94
2021/09/25 02:04:48;;;;;;;14.88;8.45;;;;;;;15.32;96.18;99217.19;5084423;28;20078;-95
2021/09/25 02:07:15;;;;;;;12.32;7.47;;;;;;;15.41;96.13;99232.91;5084939;28;20061;-94
2021/09/25 02:09:41;;;;;;;13.68;7.47;;;;;;;15.35;96.38;99221.53;5084884;28;20041;-95
2021/09/25 02:12:08;;;;;;;11.45;7.75;;;;;;;15.34;96.36;99220.69;5085201;28;20036;-93
2021/09/25 02:14:36;;;;;;;13.52;7.28;;;;;;;15.33;96.79;99221.63;5082437;28;20062;-95
2021/09/25 02:17:03;;;;;;;12.90;7.10;;;;;;;15.34;96.76;99211.78;5083852;28;20494;-94
2021/09/25 02:19:29;;;;;;;10.45;7.22;;;;;;;15.31;96.10;99210.09;5085337;28;20082;-95
2021/09/25 02:21:56;;;;;;;14.15;7.13;;;;;;;15.29;96.37;99213.75;5084072;28;20084;-95
2021/09/25 02:24:22;;;;;;;11.48;7.38;;;;;;;15.49;96.36;99247.81;5083455;28;20098;-95
2021/09/25 02:26:48;;;;;;;11.10;7.38;;;;;;;15.27;95.78;99207.59;5085014;28;20044;-95
2021/09/25 02:29:14;;;;;;;10.90;7.18;;;;;;;15.32;96.03;99221.69;5085057;28;20044;-93
2021/09/25 02:31:42;;;;;;;11.80;7.15;;;;;;;15.20;96.25;99202.47;5084581;28;20068;-94
2021/09/25 02:34:08;;;;;;;11.07;6.80;;;;;;;15.23;95.43;99228.28;5085211;28;20577;-95
2021/09/25 02:36:34;;;;;;;13.55;7.43;;;;;;;15.11;95.45;99208.16;5084763;28;20489;-95
2021/09/25 02:39:01;;;;;;;9.52;7.10;;;;;;;15.22;94.99;99242.59;5084401;28;20044;-93
2021/09/25 02:41:27;;;;;;;11.75;7.80;;;;;;;14.97;95.96;99216.75;5084213;28;20048;-95
2021/09/25 02:43:54;;;;;;;13.15;8.15;;;;;;;15.04;96.21;99232.59;5085422;28;20487;-95
2021/09/25 02:46:20;;;;;;;11.27;7.70;;;;;;;14.90;96.07;99220.59;5081682;28;20039;-94
2021/09/25 02:48:48;;;;;;;10.77;6.93;;;;;;;15.01;95.78;99238.94;5083710;28;20036;-94
2021/09/25 02:51:14;;;;;;;10.18;7.15;;;;;;;14.86;95.67;99218.97;5083291;28;20041;-93
2021/09/25 02:53:42;;;;;;;11.10;7.03;;;;;;;15.00;95.87;99218.44;5083722;28;20049;-94
2021/09/25 02:56:09;;;;;;;14.33;7.60;;;;;;;14.87;95.83;99215.34;5084522;28;20044;-94
2021/09/25 02:58:35;;;;;;;10.55;7.00;;;;;;;14.87;95.91;99219.81;5083886;28;20076;-94
2021/09/25 03:01:01;;;;;;;10.57;7.32;;;;;;;14.91;95.61;99238.38;5082755;28;20041;-93
2021/09/25 03:03:27;;;;;;;10.07;7.30;;;;;;;14.79;95.74;99226.34;5084069;28;20410;-95
2021/09/25 03:05:55;;;;;;;10.02;7.25;;;;;;;14.82;95.45;99229.84;5084196;28;20517;-94
2021/09/25 03:08:21;;;;;;;11.63;7.03;;;;;;;14.84;94.93;99249.41;5084076;28;20040;-94
2021/09/25 03:10:47;;;;;;;9.85;7.28;;;;;;;14.74;94.65;99230.97;5084720;28;20116;-95
2021/09/25 03:13:13;;;;;;;14.25;7.10;;;;;;;14.66;94.89;99227.72;5084300;28;20052;-94
2021/09/25 03:15:39;;;;;;;11.40;7.22;;;;;;;14.70;95.13;99236.50;5083738;28;20048;-94
2021/09/25 03:18:05;;;;;;;11.82;7.15;;;;;;;14.58;96.24;99211.06;5084778;28;20096;-96
2021/09/25 03:20:32;;;;;;;11.68;7.50;;;;;;;14.73;96.70;99249.78;5085330;28;20052;-93
2021/09/25 03:22:59;;;;;;;12.00;7.68;;;;;;;14.56;96.35;99219.16;5085610;28;20040;-93
2021/09/25 03:25:25;;;;;;;11.38;8.10;;;;;;;14.53;95.75;99218.34;5085205;28;20068;-93
2021/09/25 03:27:54;;;;;;;11.23;7.55;;;;;;;14.47;95.97;99218.59;5084962;28;20079;-95
2021/09/25 03:30:21;;;;;;;10.55;7.00;;;;;;;14.62;95.82;99244.84;5083751;28;20036;-93
2021/09/25 03:32:47;;;;;;;12.95;7.70;;;;;;;14.56;95.95;99248.59;5085237;28;20071;-93
2021/09/25 03:35:14;;;;;;;13.60;7.35;;;;;;;14.38;96.65;99215.31;5084984;28;20053;-94
2021/09/25 03:37:40;;;;;;;13.50;7.38;;;;;;;14.53;96.63;99242.44;5088180;28;20051;-95
2021/09/25 03:40:10;;;;;;;15.90;7.30;;;;;;;14.43;96.62;99236.53;5088993;28;20044;-92
2021/09/25 03:42:36;;;;;;;11.73;7.70;;;;;;;14.45;97.13;99233.81;5088812;28;20118;-93
2021/09/25 03:45:02;;;;;;;13.50;7.20;;;;;;;14.34;97.58;99219.00;5088619;28;20064;-93
2021/09/25 03:47:28;;;;;;;12.95;7.88;;;;;;;14.34;97.44;99210.13;5088777;28;20040;-94
2021/09/25 03:49:54;;;;;;;10.77;7.18;;;;;;;14.38;97.30;99214.44;5088478;28;20062;-94
2021/09/25 03:52:20;;;;;;;15.48;7.63;;;;;;;14.37;97.20;99218.03;5088207;28;20059;-93
2021/09/25 03:54:46;;;;;;;12.45;8.57;;;;;;;14.53;98.91;99216.56;5087731;28;20047;-94
2021/09/25 03:57:13;;;;;;;15.15;9.63;;;;;;;14.60;100.00;99211.88;5081902;28;20040;-95
2021/09/25 03:59:39;;;;;;;14.13;9.23;;;;;;;14.68;99.40;99214.28;5086317;28;20044;-93
2021/09/25 04:02:05;;;;;;;15.48;8.40;;;;;;;14.85;98.65;99219.00;5085540;28;20100;-93
2021/09/25 04:04:31;;;;;;;12.35;8.75;;;;;;;14.93;96.71;99235.66;5087031;28;20047;-94
2021/09/25 04:06:58;;;;;;;16.02;8.80;;;;;;;15.02;98.08;99240.66;5085134;28;20410;-94
2021/09/25 04:09:24;;;;;;;17.15;8.02;;;;;;;14.94;97.98;99232.94;5086026;28;20490;-94
2021/09/25 04:11:50;;;;;;;16.77;8.95;;;;;;;15.05;98.23;99237.00;5085340;28;20040;-94
2021/09/25 04:14:19;;;;;;;15.20;9.85;;;;;;;15.08;97.59;99239.56;5083355;28;20367;-95
2021/09/25 04:16:45;;;;;;;12.85;8.98;;;;;;;15.20;97.41;99255.16;5077166;28;20047;-94
2021/09/25 04:19:14;;;;;;;17.08;9.27;;;;;;;15.13;96.90;99248.31;5084494;28;20452;-94
2021/09/25 04:21:40;;;;;;;14.93;9.40;;;;;;;15.00;97.33;99232.69;5073040;28;20064;-94
2021/09/25 04:24:06;;;;;;;15.90;9.15;;;;;;;14.99;96.74;99230.94;5086853;28;20044;-94
2021/09/25 04:26:33;;;;;;;17.13;9.75;;;;;;;14.84;95.90;99220.81;5088205;28;20044;-94
2021/09/25 04:28:59;;;;;;;17.23;8.95;;;;;;;14.74;95.04;99222.94;5087216;28;20653;-93
2021/09/25 04:31:26;;;;;;;13.40;8.82;;;;;;;14.88;96.41;99249.22;5086070;28;20389;-94
2021/09/25 04:33:52;;;;;;;14.38;8.75;;;;;;;14.89;97.48;99234.91;5084994;28;20041;-95
2021/09/25 04:36:18;;;;;;;17.80;9.10;;;;;;;14.95;98.32;99245.38;5078311;28;20036;-94
2021/09/25 04:38:44;;;;;;;15.95;10.70;;;;;;;15.03;98.71;99246.88;5079332;28;20044;-94
2021/09/25 04:41:09;;;;;;;16.80;11.02;;;;;;;15.13;98.17;99261.69;5079136;28;20040;-94
2021/09/25 04:43:35;;;;;;;18.83;11.43;;;;;;;15.06;98.29;99234.28;5081562;28;20032;-94
2021/09/25 04:46:01;;;;;;;19.50;11.30;;;;;;;15.12;97.98;99249.25;5080298;28;20044;-96
2021/09/25 04:48:29;;;;;;;23.23;11.52;;;;;;;15.00;98.13;99223.78;5078941;28;20068;-94
2021/09/25 04:50:55;;;;;;;19.38;11.70;;;;;;;15.04;98.19;99243.31;5080928;28;20048;-94
2021/09/25 04:53:21;;;;;;;25.10;12.05;;;;;;;15.18;98.45;99279.34;5080880;28;20047;-95
2021/09/25 04:55:47;;;;;;;19.30;10.80;;;;;;;15.13;98.43;99261.69;5081146;28;20464;-94
2021/09/25 04:58:13;;;;;;;18.75;10.07;;;;;;;15.13;97.88;99259.03;5085497;28;20040;-93
2021/09/25 05:00:39;;;;;;;15.80;9.45;;;;;;;15.09;97.21;99241.31;5086302;28;20125;-94
2021/09/25 05:03:05;;;;;;;21.23;9.52;;;;;;;15.17;96.99;99276.72;5084648;28;20509;-95
2021/09/25 05:05:33;;;;;;;20.15;10.13;;;;;;;14.99;96.72;99252.38;5085928;28;20040;-93
2021/09/25 05:07:59;;;;;;;19.33;9.68;;;;;;;15.08;96.61;99242.25;5086794;28;20056;-94
2021/09/25 05:10:25;;;;;;;16.85;9.85;;;;;;;15.14;96.72;99264.31;5086009;28;20044;-94
2021/09/25 05:12:51;;;;;;;17.98;9.60;;;;;;;15.10;96.73;99261.81;5082589;28;20033;-94
2021/09/25 05:15:17;;;;;;;15.88;9.27;;;;;;;15.13;96.71;99273.28;5084402;28;20052;-94
2021/09/25 05:17:43;;;;;;;15.23;9.60;;;;;;;15.06;96.29;99263.72;5086632;28;20037;-93
2021/09/25 05:20:11;;;;;;;14.35;8.57;;;;;;;14.97;95.29;99261.41;5086602;28;20049;-93
2021/09/25 05:22:38;;;;;;;13.55;8.75;;;;;;;14.89;94.43;99260.81;5086443;28;20041;-95
2021/09/25 05:25:06;;;;;;;13.98;8.30;;;;;;;14.85;93.30;99265.38;5086442;28;20045;-93
2021/09/25 05:27:32;;;;;;;14.20;8.25;;;;;;;14.87;92.87;99276.91;5086648;28;20044;-94
2021/09/25 05:29:58;;;;;;;14.23;8.13;;;;;;;14.79;92.58;99281.72;5086906;28;20417;-93
2021/09/25 05:32:24;;;;;;;14.68;8.80;;;;;;;14.74;92.60;99279.16;5085843;28;20606;-93
2021/09/25 05:34:50;;;;;;;12.00;8.43;;;;;;;14.76;92.67;99287.16;5083285;28;20036;-94
2021/09/25 05:37:17;;;;;;;13.07;8.57;;;;;;;14.75;92.11;99286.28;5086824;28;20043;-94
2021/09/25 05:39:44;;;;;;;17.35;9.60;;;;;;;14.80;91.82;99299.50;5087127;28;20036;-94
2021/09/25 05:42:11;;;;;;;16.80;8.98;;;;;;;14.79;91.72;99292.41;5086967;28;20449;-94
2021/09/25 05:44:37;;;;;;;17.05;9.60;;;;;;;14.89;92.18;99306.31;5086568;28;20104;-94
2021/09/25 05:47:03;;;;;;;15.68;9.55;;;;;;;14.89;91.98;99303.66;5086308;28;20037;-93
2021/09/25 05:49:29;;;;;;;16.13;9.35;;;;;;;14.81;92.22;99273.59;5086793;28;20076;-92
2021/09/25 05:51:55;;;;;;;15.98;9.45;;;;;;;14.90;91.88;99294.72;5085285;28;20040;-92
2021/09/25 05:54:22;;;;;;;14.82;8.90;;;;;;;14.94;91.56;99285.59;5084280;28;20047;-93
2021/09/25 05:56:49;;;;;;;17.20;9.40;;;;;;;15.00;91.18;99294.28;5085512;28;20119;-94
2021/09/25 05:59:16;;;;;;;14.65;9.60;;;;;;;15.07;90.68;99286.03;5085405;28;20048;-92
2021/09/25 06:01:43;;;;;;;15.52;9.35;;;;;;;15.16;90.48;99289.25;5084907;28;20047;-92
2021/09/25 06:04:09;;;;;;;15.65;10.38;;;;;;;15.23;90.45;99294.38;5085320;28;20040;-92
2021/09/25 06:06:35;;;;;;;12.57;8.65;;;;;;;15.27;89.62;99279.94;5084844;28;20062;-94
2021/09/25 06:09:02;;;;;;;19.38;9.63;;;;;;;15.33;89.23;99282.38;5085428;28;20060;-92
2021/09/25 06:11:31;;;;;;;15.50;8.90;;;;;;;15.45;88.91;99281.91;5083560;28;20052;-91
2021/09/25 06:13:59;;;;;;;19.15;12.05;;;;;;;15.76;90.93;99319.13;5083412;28;20052;-92
2021/09/25 06:16:26;;;;;;;18.30;11.68;;;;;;;15.83;91.75;99292.97;5080559;28;20040;-90
2021/09/25 06:18:53;;;;;;;17.70;11.73;;;;;;;16.02;91.04;99303.81;5082984;28;20063;-93
2021/09/25 06:21:21;;;;;;;17.13;10.33;;;;;;;16.22;88.93;99317.28;5079685;28;20041;-92
2021/09/25 06:23:51;;;;;;;13.88;9.60;;;;;;;16.31;88.02;99312.44;5081751;28;20040;-93
2021/09/25 06:26:26;;;;;;;15.27;9.88;;;;;;;16.51;88.03;99317.00;5081332;28;20538;-93
2021/09/25 06:29:04;;;;;;;17.85;9.82;;;;;;;16.53;88.98;99323.19;5081831;28;20044;-94
2021/09/25 06:31:37;;;;;;;16.50;10.23;;;;;;;16.43;88.64;99311.94;5080609;28;20040;-92
2021/09/25 06:34:07;;;;;;;18.27;10.43;;;;;;;16.45;88.59;99325.31;5082865;28;20040;-92
2021/09/25 06:36:40;;;;;;;19.25;10.27;;;;;;;16.32;88.00;99290.94;5081505;28;20379;-91
2021/09/25 06:39:14;;;;;;;16.15;9.93;;;;;;;16.54;87.20;99325.78;5078526;28;20033;-94
2021/09/25 06:41:58;;;;;;;14.45;9.07;;;;;;;16.42;87.96;99304.84;5084502;28;20048;-91
2021/09/25 06:44:28;;;;;;;16.55;9.43;;;;;;;16.66;87.04;99327.09;5082575;28;20055;-94
2021/09/25 06:46:55;;;;;;;14.13;8.90;;;;;;;16.60;86.78;99305.88;5081511;28;20068;-93
2021/09/25 06:49:23;;;;;;;16.10;9.15;;;;;;;16.73;87.14;99333.06;5082214;28;20036;-93
2021/09/25 06:51:50;;;;;;;14.93;9.25;;;;;;;16.76;86.75;99322.19;5080649;28;20050;-94
2021/09/25 06:54:16;;;;;;;13.88;8.25;;;;;;;16.71;85.83;99310.78;5081600;28;20078;-92
2021/09/25 06:56:42;;;;;;;13.38;8.10;;;;;;;16.89;85.50;99322.53;5080701;28;20111;-93
2021/09/25 06:59:08;;;;;;;13.30;8.18;;;;;;;16.62;86.08;99291.44;5078702;28;20402;-95
2021/09/25 07:01:35;;;;;;;13.05;8.02;;;;;;;16.92;85.61;99317.91;5078648;28;20041;-93
2021/09/25 07:04:01;;;;;;;13.43;8.60;;;;;;;17.07;84.61;99319.06;5078418;28;20128;-94
2021/09/25 07:06:27;;;;;;;11.98;7.75;;;;;;;17.20;84.41;99317.56;5080111;28;20068;-92
2021/09/25 07:08:53;;;;;;;10.05;7.53;;;;;;;17.38;83.34;99298.84;5081103;28;20036;-94
2021/09/25 07:11:19;;;;;;;12.32;7.53;;;;;;;17.58;82.29;99305.97;5079751;28;20733;-91
2021/09/25 07:13:45;;;;;;;11.30;7.38;;;;;;;17.71;81.39;99301.75;5079849;28;20037;-92
2021/09/25 07:16:11;;;;;;;11.40;7.13;;;;;;;18.01;81.06;99320.09;5078118;28;20044;-94
2021/09/25 07:18:39;;;;;;;12.95;6.75;;;;;;;18.03;80.49;99315.50;5079204;28;20128;-95
2021/09/25 07:21:05;;;;;;;9.90;7.20;;;;;;;18.31;78.31;99330.31;5078780;28;20048;-94
2021/09/25 07:23:31;;;;;;;10.45;6.97;;;;;;;18.31;79.06;99319.53;5078175;28;20084;-93
2021/09/25 07:25:58;;;;;;;12.15;7.70;;;;;;;18.34;78.57;99313.97;5083283;28;20032;-94
2021/09/25 07:28:24;;;;;;;9.07;6.45;;;;;;;18.48;78.36;99335.72;5080930;28;20044;-94
2021/09/25 07:30:50;;;;;;;9.68;6.93;;;;;;;18.18;78.61;99314.75;5076500;28;20041;-94
2021/09/25 07:33:16;;;;;;;11.57;7.40;;;;;;;18.20;79.35;99315.53;5079048;28;20033;-92
2021/09/25 07:35:45;;;;;;;10.35;7.20;;;;;;;18.37;78.63;99319.22;5078337;28;20127;-93
2021/09/25 07:38:11;;;;;;;12.02;7.25;;;;;;;18.59;77.90;99330.66;5076362;28;20131;-92
2021/09/25 07:40:37;;;;;;;10.05;6.93;;;;;;;18.93;77.28;99355.88;5071468;28;20071;-93
2021/09/25 07:43:04;;;;;;;8.95;6.75;;;;;;;18.87;76.99;99340.91;5075390;28;20051;-94
2021/09/25 07:45:30;;;;;;;11.02;6.70;;;;;;;18.93;75.44;99355.88;5071332;28;20445;-93
2021/09/25 07:47:56;;;;;;;13.77;7.10;;;;;;;18.87;75.90;99356.22;5072867;28;20045;-94
2021/09/25 07:50:22;;;;;;;9.55;7.15;;;;;;;18.85;76.27;99358.09;5074055;28;20037;-93
2021/09/25 07:52:50;;;;;;;10.85;6.57;;;;;;;19.00;76.09;99365.41;5072539;28;20563;-93
2021/09/25 07:55:16;;;;;;;12.45;6.50;;;;;;;19.03;75.68;99340.97;5073255;28;20052;-94
2021/09/25 07:57:43;;;;;;;10.35;6.40;;;;;;;19.57;73.73;99353.41;5073583;28;20385;-94
2021/09/25 08:00:12;;;;;;;13.07;7.05;;;;;;;19.90;72.12;99354.25;5074947;28;20119;-94
2021/09/25 08:02:38;;;;;;;13.18;7.07;;;;;;;19.96;71.31;99344.09;5076722;28;20040;-92
2021/09/25 08:05:05;;;;;;;11.13;6.22;;;;;;;20.14;71.08;99345.72;5076264;28;20135;-94
2021/09/25 08:07:32;;;;;;;;;;;;;;;20.48;70.85;99362.69;5079265;28;20044;-94
2021/09/25 08:10:00;;;;;;;10.93;6.10;;;;;;;20.64;68.64;99357.28;5078698;28;19991;-94
2021/09/25 08:12:26;;;;;;;8.68;6.18;;;;;;;20.44;68.74;99321.47;5081249;28;20043;-93
2021/09/25 08:14:52;;;;;;;9.15;5.80;;;;;;;20.46;69.65;99332.19;5082251;28;20136;-94
2021/09/25 08:17:18;;;;;;;10.75;5.88;;;;;;;20.73;69.07;99348.63;5077014;28;20044;-95
2021/09/25 08:19:46;;;;;;;10.15;6.55;;;;;;;20.76;67.92;99329.53;5080249;28;20072;-93
2021/09/25 08:22:12;;;;;;;8.75;5.95;;;;;;;21.11;67.79;99367.09;5080008;28;20105;-95
2021/09/25 08:24:38;;;;;;;9.00;5.65;;;;;;;21.20;66.83;99355.69;5083230;28;20048;-94
2021/09/25 08:27:05;;;;;;;14.63;6.53;;;;;;;21.27;65.24;99335.41;5082284;28;20107;-95
2021/09/25 08:29:31;;;;;;;9.38;5.90;;;;;;;21.30;65.44;99348.75;5086127;28;20048;-96
2021/09/25 08:31:57;;;;;;;8.23;6.40;;;;;;;21.41;64.37;99337.31;5081036;28;20085;-96
2021/09/25 08:34:23;;;;;;;8.23;5.82;;;;;;;21.33;65.02;99345.00;5085375;28;20044;-96
2021/09/25 08:36:49;;;;;;;9.82;6.30;;;;;;;21.50;64.59;99360.22;5084454;28;20045;-96
2021/09/25 08:39:17;;;;;;;9.57;6.03;;;;;;;21.51;64.09;99335.78;5082789;28;20424;-94
2021/09/25 08:41:44;;;;;;;9.07;6.78;;;;;;;21.60;64.11;99344.25;5087347;28;20045;-94
2021/09/25 08:44:12;;;;;;;9.18;5.97;;;;;;;21.75;63.64;99340.56;5085613;28;20187;-96
2021/09/25 08:46:38;;;;;;;8.48;6.10;;;;;;;21.88;63.45;99351.47;5081872;28;20490;-95
2021/09/25 08:49:05;;;;;;;9.68;6.15;;;;;;;21.93;63.12;99336.69;5081676;28;20037;-94
2021/09/25 08:51:31;;;;;;;9.57;6.43;;;;;;;21.98;62.69;99351.78;5084120;28;20075;-93
2021/09/25 08:53:57;;;;;;;10.55;6.25;;;;;;;21.97;62.96;99333.75;5083231;28;20071;-94
2021/09/25 08:56:23;;;;;;;9.25;6.35;;;;;;;22.24;62.79;99359.09;5082496;28;20474;-94
2021/09/25 08:58:49;;;;;;;10.15;5.95;;;;;;;22.32;62.17;99343.19;5082476;28;20064;-94
2021/09/25 09:01:22;;;;;;;9.93;6.28;;;;;;;22.24;62.52;99320.28;5080895;28;20036;-96
2021/09/25 09:03:51;;;;;;;9.45;5.60;;;;;;;22.35;62.54;99325.88;5082395;28;20056;-95
2021/09/25 09:06:19;;;;;;;10.07;5.65;;;;;;;22.55;61.61;99341.66;5082245;28;20032;-95
2021/09/25 09:08:47;;;;;;;9.35;6.20;;;;;;;22.66;61.33;99351.78;5083057;28;20051;-95
2021/09/25 09:11:14;;;;;;;8.48;5.57;;;;;;;22.80;60.90;99349.97;5080608;28;20047;-95
2021/09/25 09:13:42;;;;;;;13.02;5.88;;;;;;;22.81;61.25;99354.41;5083842;28;20048;-93
2021/09/25 09:16:10;;;;;;;11.57;6.07;;;;;;;22.88;60.68;99353.00;5079213;28;20052;-95
2021/09/25 09:18:40;;;;;;;9.75;6.13;;;;;;;22.66;60.70;99329.22;5084377;28;20390;-96
2021/09/25 09:21:09;;;;;;;13.15;6.32;;;;;;;22.66;61.44;99319.25;5084822;28;20036;-93
2021/09/25 09:23:37;;;;;;;11.98;6.68;;;;;;;22.82;61.01;99321.78;5084137;28;20051;-94
2021/09/25 09:26:05;;;;;;;9.77;5.75;;;;;;;22.08;62.37;99324.00;5079289;28;20045;-94
2021/09/25 09:28:36;;;;;;;9.55;6.13;;;;;;;22.27;62.13;99318.25;5084656;28;20123;-94
2021/09/25 09:31:05;;;;;;;15.43;7.60;;;;;;;22.25;62.65;99312.06;5081788;28;20072;-95
2021/09/25 09:33:38;;;;;;;8.35;6.28;;;;;;;22.63;62.82;99342.97;5084239;28;20055;-94
2021/09/25 09:36:22;;;;;;;10.60;6.38;;;;;;;22.86;61.92;99334.16;5082228;28;20100;-94
2021/09/25 09:38:51;;;;;;;11.35;6.30;;;;;;;23.05;60.51;99320.22;5085089;28;20047;-94
2021/09/25 09:41:18;;;;;;;;;;;;;;;22.80;61.93;99349.97;5087889;28;20051;-95
2021/09/25 09:43:44;;;;;;;12.23;6.30;;;;;;;22.93;61.61;99334.59;5086648;28;19938;-94
2021/09/25 09:46:10;;;;;;;11.75;6.68;;;;;;;23.21;60.86;99327.28;5086320;28;20048;-94
2021/09/25 09:48:38;;;;;;;15.50;7.03;;;;;;;23.48;59.78;99319.88;5083351;28;20135;-94
2021/09/25 09:51:04;;;;;;;11.35;6.88;;;;;;;23.73;59.25;99337.13;5083923;28;20053;-94
2021/09/25 09:53:42;;;;;;;10.20;6.13;;;;;;;23.62;58.97;99318.03;5085289;28;20059;-93
2021/09/25 09:56:19;;;;;;;13.45;6.95;;;;;;;23.01;59.90;99326.84;5082223;28;20490;-94
2021/09/25 09:58:56;;;;;;;12.23;6.40;;;;;;;22.80;61.29;99329.16;5081160;28;20036;-93
2021/09/25 10:01:22;;;;;;;10.25;6.60;;;;;;;23.26;60.54;99341.38;5081938;28;20078;-95
2021/09/25 10:03:50;;;;;;;16.98;8.35;;;;;;;23.43;59.48;99308.50;5081856;28;20070;-94
2021/09/25 10:06:17;;;;;;;12.02;6.78;;;;;;;23.42;57.64;99308.59;5080202;28;20041;-95
2021/09/25 10:08:43;;;;;;;10.55;6.13;;;;;;;23.52;55.90;99329.53;5076601;28;20127;-94
2021/09/25 10:11:10;;;;;;;9.93;6.47;;;;;;;23.72;55.72;99325.38;5076584;28;20120;-95
2021/09/25 10:13:39;;;;;;;9.18;5.78;;;;;;;23.95;55.56;99331.91;5075799;28;20041;-96
2021/09/25 10:16:06;;;;;;;9.43;5.93;;;;;;;24.00;54.80;99309.81;5069802;28;20063;-93
2021/09/25 10:18:33;;;;;;;9.35;5.65;;;;;;;23.98;55.83;99325.38;5077039;28;20045;-95
2021/09/25 10:21:02;;;;;;;13.10;5.80;;;;;;;23.91;52.58;99324.09;5075596;28;20037;-93
2021/09/25 10:23:28;;;;;;;9.52;5.93;;;;;;;24.02;52.83;99301.56;5079415;28;20036;-96
2021/09/25 10:25:56;;;;;;;10.18;5.47;;;;;;;24.20;53.21;99313.75;5075643;28;20036;-94
2021/09/25 10:28:23;;;;;;;9.68;5.95;;;;;;;24.25;51.78;99305.28;5076296;28;20445;-95
2021/09/25 10:30:51;;;;;;;9.60;5.90;;;;;;;24.49;51.52;99329.78;5078431;28;20440;-94
2021/09/25 10:33:18;;;;;;;8.75;5.20;;;;;;;24.52;50.56;99316.81;5074139;28;20052;-93
2021/09/25 10:35:55;;;;;;;8.35;5.25;;;;;;;24.54;48.58;99313.97;5074689;28;20040;-93
2021/09/25 10:38:39;;;;;;;9.45;5.53;;;;;;;24.61;49.35;99309.81;5073785;28;20063;-94
2021/09/25 10:41:22;;;;;;;13.68;5.30;;;;;;;24.61;45.88;99293.47;5072917;28;20044;-94
2021/09/25 10:43:49;;;;;;;7.72;5.03;;;;;;;24.79;45.65;99302.97;5075098;28;20048;-95
2021/09/25 10:46:15;;;;;;;7.93;4.50;;;;;;;24.80;41.93;99285.63;5074507;28;20048;-94
2021/09/25 10:48:50;;;;;;;6.55;4.25;;;;;;;24.86;42.21;99311.50;5074572;28;20114;-94
2021/09/25 10:51:19;;;;;;;7.55;4.53;;;;;;;24.96;41.41;99303.47;5073928;28;20048;-94
2021/09/25 10:53:49;;;;;;;8.68;4.78;;;;;;;24.85;40.73;99276.25;5075869;28;20502;-94
2021/09/25 10:56:18;;;;;;;6.55;4.20;;;;;;;24.83;39.89;99283.66;5075272;28;20492;-92
2021/09/25 10:58:58;;;;;;;6.75;4.15;;;;;;;24.83;40.64;99291.81;5074462;28;20045;-94
2021/09/25 11:01:33;;;;;;;6.53;3.85;;;;;;;24.75;38.39;99290.59;5071720;28;20112;-93
2021/09/25 11:04:10;;;;;;;9.18;4.78;;;;;;;24.85;38.44;99278.97;5074709;28;20490;-93
2021/09/25 11:06:52;;;;;;;7.85;4.10;;;;;;;24.97;37.37;99283.47;5066486;28;20040;-93
2021/09/25 11:09:44;;;;;;;6.75;4.15;;;;;;;25.11;38.56;99290.53;5075831;28;20047;-95
2021/09/25 11:12:11;;;;;;;7.32;4.40;;;;;;;25.02;39.03;99292.13;5074725;28;20492;-95
2021/09/25 11:14:43;;;;;;;8.25;4.00;;;;;;;25.05;38.43;99291.00;5074454;28;20041;-94
2021/09/25 11:20:33;;;;;;;5.55;3.97;;;;;;;25.12;38.82;99270.50;5132493;27;20144;-93
2021/09/25 11:22:59;;;;;;;6.20;4.00;;;;;;;25.28;39.13;99287.38;5128836;28;20408;-93
2021/09/25 11:25:29;;;;;;;6.57;4.22;;;;;;;25.25;38.25;99278.59;5127235;28;20489;-93
2021/09/25 11:27:56;;;;;;;6.55;4.38;;;;;;;25.29;38.92;99275.50;5114571;28;20057;-94
2021/09/25 11:30:29;;;;;;;7.63;4.35;;;;;;;25.30;38.88;99268.19;5119495;28;20058;-94